Stella Prima — PHEA — position and weather

sailwx.info

Track history (hours):
 
Tides and Currents Weather Stations Pressure Air Temp Water Temp Dewpoint Dewpoint Depression Visibility Wind Speed Wind Dir Waves Ship Positions

Stella Prima

Last reported at 2016-Jun-25 18:32 UTC. Time now 2016-Jul-01 06:25 UTC.
Position N 37°58' W 031°47'.

Length 100 m; beam 21 m.

Type: Cargo ship. MMSI: 246460000.

Date/timePositionNaut miles runAvg speedWind from/ knotsBaromVisibWave heightAir tempDewpointWater temp
2016-Jun-25 18:32N 37°58' W 031°47'1514.2
2016-Jun-25 17:30N 38°02' W 031°29'1313.9
2016-Jun-25 16:32N 38°07' W 031°13'1414.6
2016-Jun-25 15:33N 38°12' W 030°56'1413.8
2016-Jun-25 14:33N 38°15' W 030°39'1413.9
2016-Jun-25 13:33N 38°20' W 030°22'1413.9
2016-Jun-25 12:33N 38°24' W 030°06'1413.7
2016-Jun-25 11:34N 38°31' W 029°50'1414.1
2016-Jun-25 10:33N 38°38' W 029°35'1414.1
2016-Jun-25 09:33N 38°45' W 029°19'1413.5
2016-Jun-25 08:33N 38°52' W 029°04'1413.8
2016-Jun-25 07:34N 38°59' W 028°49'1413.7
2016-Jun-25 06:33N 39°06' W 028°34'1413.6
2016-Jun-25 05:34N 39°13' W 028°19'1413.7
2016-Jun-25 04:34N 39°19' W 028°03'1413.6
2016-Jun-25 03:33N 39°24' W 027°46'1413.9
2016-Jun-25 02:34N 39°29' W 027°30'1713.8
2016-Jun-25 01:18N 39°36' W 027°09'1413.9
2016-Jun-25 00:17N 39°42' W 026°52'2513.9
2016-Jun-24 22:29N 39°52' W 026°22'1414.1
2016-Jun-24 21:28N 39°57' W 026°05'  
2016-Jun-21 23:14N 43°48' W 006°23'912.7
2016-Jun-21 22:31N 43°47' W 006°10'2612.5
2016-Jun-21 20:27N 43°44' W 005°34'1212.9
2016-Jun-21 19:31N 43°42' W 005°18'1212.9
2016-Jun-21 18:33N 43°41' W 005°01'54 4.5
2016-Jun-21 06:30N 43°27' W 003°49'  
2016-Jun-16 02:30N 43°40' W 004°52'1313.3
2016-Jun-16 01:33N 43°42' W 005°09'1313.1
2016-Jun-16 00:33N 43°44' W 005°27'1312.9
2016-Jun-15 23:33N 43°46' W 005°45'1312.6
2016-Jun-15 22:33N 43°47' W 006°02'  
Track history (hours):
 
Tides and Currents Weather Stations Pressure Air Temp Water Temp Dewpoint Dewpoint Depression Visibility Wind Speed Wind Dir Waves Ship Positions

Stella Prima

Last reported at 2016-Jun-25 18:32 UTC. Time now 2016-Jul-01 06:25 UTC.
Position N 37°58' W 031°47'.

Length 100 m; beam 21 m.

Type: Cargo ship. MMSI: 246460000.

Date/timePositionNaut miles runAvg speedWind from/ knotsBaromVisibWave heightAir tempDewpointWater temp
2016-Jun-25 18:32N 37°58' W 031°47'1514.2
2016-Jun-25 17:30N 38°02' W 031°29'1313.9
2016-Jun-25 16:32N 38°07' W 031°13'1414.6
2016-Jun-25 15:33N 38°12' W 030°56'1413.8
2016-Jun-25 14:33N 38°15' W 030°39'1413.9
2016-Jun-25 13:33N 38°20' W 030°22'1413.9
2016-Jun-25 12:33N 38°24' W 030°06'1413.7
2016-Jun-25 11:34N 38°31' W 029°50'1414.1
2016-Jun-25 10:33N 38°38' W 029°35'1414.1
2016-Jun-25 09:33N 38°45' W 029°19'1413.5
2016-Jun-25 08:33N 38°52' W 029°04'1413.8
2016-Jun-25 07:34N 38°59' W 028°49'1413.7
2016-Jun-25 06:33N 39°06' W 028°34'1413.6
2016-Jun-25 05:34N 39°13' W 028°19'1413.7
2016-Jun-25 04:34N 39°19' W 028°03'1413.6
2016-Jun-25 03:33N 39°24' W 027°46'1413.9
2016-Jun-25 02:34N 39°29' W 027°30'1713.8
2016-Jun-25 01:18N 39°36' W 027°09'1413.9
2016-Jun-25 00:17N 39°42' W 026°52'2513.9
2016-Jun-24 22:29N 39°52' W 026°22'1414.1
2016-Jun-24 21:28N 39°57' W 026°05'  
2016-Jun-21 23:14N 43°48' W 006°23'912.7
2016-Jun-21 22:31N 43°47' W 006°10'2612.5
2016-Jun-21 20:27N 43°44' W 005°34'1212.9
2016-Jun-21 19:31N 43°42' W 005°18'1212.9
2016-Jun-21 18:33N 43°41' W 005°01'54 4.5
2016-Jun-21 06:30N 43°27' W 003°49'  
2016-Jun-16 02:30N 43°40' W 004°52'1313.3
2016-Jun-16 01:33N 43°42' W 005°09'1313.1
2016-Jun-16 00:33N 43°44' W 005°27'1312.9
2016-Jun-15 23:33N 43°46' W 005°45'1312.6
2016-Jun-15 22:33N 43°47' W 006°02'  

Dump ship's entire track history